Nearby METAR Reports

 

EGNR - Hawarden (aut), United Kingdom
Distance from station: NNE 5mi, 8km
Updated: Sun, 18-Feb-2018 6:50pm GMT
Rain showers, Partly cloudy
Rain showers, Partly cloudy
 Wind from SSE
Wind: SSE 8 mph , 13 km/h
Temperature: 46°F , 8°C
Wind Chill: 42°F , 6°C
Dew Point: 43°F , 6°C
Humidity: 87%
Barometer: 30.06 inHg , 1018 hPa
Summary: Rain Showers
Clouds: Partly Cloudy
Visibility: 6 miles , 9 km
Cloud details: Partly Cloudy 2000 ft
2018/02/18 18:50 EGNR 181850Z 15007KT 9000 SHRA SCT020 08/06 Q1018
EGGP - Liverpool Airpor, United Kingdom
Distance from station: NNE 17mi, 27km
Updated: Sun, 18-Feb-2018 7:20pm GMT
Light drizzle, Overcast
Light drizzle, Overcast
 Wind from SE
Wind: SE 6 mph , 9 km/h
Temperature: 45°F , 7°C
Wind Chill: 42°F , 6°C
Dew Point: 43°F , 6°C
Humidity: 93%
Barometer: 30.06 inHg , 1018 hPa
Summary: Light Drizzle
Clouds: Overcast
Visibility: 6 miles , 10 km
Cloud details: Overcast 1500 ft
2018/02/18 19:20 EGGP 181920Z 14005KT 9999 -DZ OVC015 07/06 Q1018
 
EGOS - Shawbury Raf, United Kingdom
Distance from station: SE 25mi, 41km
Updated: Sun, 18-Feb-2018 6:50pm GMT
Light rain, Overcast
Light rain, Overcast
 Wind from SSE
Wind: SSE 7 mph , 11 km/h
Temperature: 45°F , 7°C
Wind Chill: 41°F , 5°C
Dew Point: 43°F , 6°C
Humidity: 93%
Barometer: 30.06 inHg , 1018 hPa
Summary: Light Rain
Clouds: Overcast
Visibility: 6 miles , 10 km
Cloud details: Overcast 2100 ft
2018/02/18 18:50 EGOS 181850Z AUTO 16006KT 9999 -RA OVC021/// 07/06 Q1018
EGCC - Manchester Intl, United Kingdom
Distance from station: ENE 36mi, 58km
Updated: Sun, 18-Feb-2018 7:20pm GMT
Light rain, Overcast
Light rain, Overcast
 Wind from varies
Wind: varies 3 mph , 6 km/h
Temperature: 45°F , 7°C
Dew Point: 43°F , 6°C
Humidity: 93%
Barometer: 30.06 inHg , 1018 hPa
Summary: Light Rain
Clouds: Overcast
Visibility: 6 miles , 10 km
Cloud details: Overcast 1700 ft
2018/02/18 19:20 EGCC 181920Z AUTO VRB03KT 9999 -RA OVC017 07/06 Q1018 TEMPO BKN010

Metar display script from Saratoga-Weather.org